Leeuwarden, Netherlands

1:36 PM CET on January 18, 2017 (GMT +0100)
Leeuwarden Air Base

Weather History for EHLW - October, 2013

Change the Weather History Date:

Sunday, October 6, 2013

  Actual Average Record
Temperature  
Mean Temperature 53 °F -  
Max Temperature 63 °F 53 °F 66 °F (1997)
Min Temperature 43 °F 43 °F 36 °F (2016)
Degree Days  
Heating Degree Days 12    
Growing Degree Days 3 (Base 50)    
Moisture  
Dew Point 48 °F    
Average Humidity 93    
Maximum Humidity 100    
Minimum Humidity 52    
Precipitation  
Precipitation 0.00 in - - ()
Sea Level Pressure  
Sea Level Pressure 30.23 in    
Wind  
Wind Speed 4 mph ()    
Max Wind Speed 9 mph    
Max Gust Speed -    
Visibility 4.3 miles    
Events Fog    
Averages and records for this station are not official NWS values.
T = Trace of Precipitation, MM = Missing Value Source: Averaged Metar Reports

Daily Weather History Graph

Daily Weather History Graph

Search for Another Location

Airport or City:

Trip Planner

Search our weather history database for the weather conditions in past years. The results will help you decide how hot, cold, wet, or windy it might be!

Date:

Astronomy

Oct. 06, 2013 Rise Set
Actual Time 7:47 AM CEST 7:01 PM CEST
Civil Twilight 7:12 AM CEST 7:36 PM CEST
Nautical Twilight 6:32 AM CEST 8:16 PM CEST
Astronomical Twilight 5:51 AM CEST 8:57 PM CEST
Moon 9:31 AM CEST (10/6) 7:30 PM CEST (10/6)
Length of Visible Light 12h 23m
Length of Day
11h 14m
New Moon, 2% of the Moon is Illuminated
Oct 6
New Moon
Oct 12
First Quarter
Oct 19
Full
Oct 27
Last Quarter
Nov 3
New

Hourly Weather History & Observations

Time (CEST) Temp. Windchill Dew Point Humidity Pressure Visibility Wind Dir Wind Speed Gust Speed Precip Events Conditions
12:03 AM 48.2 °F - 48.2 °F 100% 30.18 in 0.5 mi West 3.5 mph - N/A Fog Fog
12:08 AM 50.0 °F - 48.2 °F 94% 30.18 in 1.1 mi West 3.5 mph - N/A   Mostly Cloudy
12:12 AM 50.0 °F - 50.0 °F 100% 30.18 in 3.7 mi West 4.6 mph - N/A   Mostly Cloudy
12:25 AM 50.0 °F - 48.2 °F 94% 30.18 in - West 4.6 mph - N/A   Scattered Clouds
12:29 AM 50.0 °F - 50.0 °F 100% 30.18 in - West 4.6 mph - N/A Fog Fog
12:33 AM 50.0 °F - 50.0 °F 100% 30.18 in 0.7 mi West 4.6 mph - N/A   Partly Cloudy
12:37 AM 50.0 °F - 50.0 °F 100% 30.18 in - WSW 4.6 mph - N/A   Mist
12:41 AM 50.0 °F - 48.2 °F 94% 30.18 in 3.7 mi WSW 3.5 mph - N/A   Mist
12:51 AM 50.0 °F - 48.2 °F 94% 30.18 in - West 4.6 mph - N/A   Mist
12:55 AM 50.0 °F - 50.0 °F 100% 30.18 in 3.1 mi West 4.6 mph - N/A   Mist
1:02 AM 48.2 °F - 48.2 °F 100% 30.18 in 2.8 mi West 3.5 mph - N/A   Mist
1:07 AM 48.2 °F - 48.2 °F 100% 30.18 in 3.1 mi WSW 3.5 mph - N/A   Mist
1:14 AM 48.2 °F - 48.2 °F 100% 30.18 in - WSW 3.5 mph - N/A   Mist
1:18 AM 48.2 °F - 48.2 °F 100% 30.18 in - WSW 3.5 mph - N/A   Mist
1:25 AM 48.2 °F - 48.2 °F 100% 30.18 in 1.4 mi WSW 4.6 mph - N/A   Mist
1:29 AM 48.2 °F - 48.2 °F 100% 30.18 in 0.7 mi WSW 4.6 mph - N/A   Mist
1:33 AM 48.2 °F - 48.2 °F 100% 30.18 in - West 4.6 mph - N/A Fog Fog
1:37 AM 48.2 °F - 48.2 °F 100% 30.18 in 0.7 mi West 4.6 mph - N/A   Mist
1:41 AM 48.2 °F - 48.2 °F 100% 30.18 in 1.2 mi West 4.6 mph - N/A   Partly Cloudy
1:45 AM 46.4 °F 45.2 °F 46.4 °F 100% 30.18 in 0.7 mi West 3.5 mph - N/A   Partly Cloudy
1:55 AM 48.2 °F - 48.2 °F 100% 30.18 in - West 3.5 mph - N/A Fog Fog
1:59 AM 46.4 °F 45.2 °F 46.4 °F 100% 30.18 in 0.9 mi WSW 3.5 mph - N/A   Partly Cloudy
2:00 AM 47 °F - 47 °F 98% 30.20 in 0 mi SW 2.2 mph - - Fog Fog
2:03 AM 46.4 °F 45.2 °F 46.4 °F 100% 30.18 in - SW 3.5 mph - N/A   Mist
2:07 AM 46.4 °F 45.2 °F 46.4 °F 100% 30.18 in - SW 3.5 mph - N/A   Mist
2:11 AM 46.4 °F 45.2 °F 46.4 °F 100% 30.18 in 6.2 mi SW 3.5 mph - N/A   Unknown
2:15 AM 46.4 °F 45.2 °F 46.4 °F 100% 30.18 in 6.2 mi WSW 3.5 mph - N/A   Unknown
2:25 AM 46.4 °F 45.2 °F 46.4 °F 100% 30.18 in 6.2 mi WSW 3.5 mph - N/A   Unknown
2:51 AM 46.4 °F 45.2 °F 46.4 °F 100% 30.18 in 3.7 mi SSW 3.5 mph - N/A   Mist
2:55 AM 46.4 °F 45.2 °F 46.4 °F 100% 30.18 in - SSW 3.5 mph - N/A   Mist
2:59 AM 46.4 °F 45.2 °F 46.4 °F 100% 30.21 in 1.1 mi SSW 3.5 mph - N/A   Mist
3:03 AM 46.4 °F 45.2 °F 46.4 °F 100% 30.21 in 1.2 mi SSW 3.5 mph - N/A   Mist
3:10 AM 44.6 °F 43.1 °F 44.6 °F 100% 30.21 in 6.2 mi SSW 3.5 mph - N/A   Partly Cloudy
3:14 AM 44.6 °F 43.1 °F 44.6 °F 100% 30.21 in - SSW 3.5 mph - N/A   Mist
3:16 AM 44.6 °F - 44.6 °F 100% 30.21 in 3.1 mi SSW 2.3 mph - N/A   Mist
3:25 AM 44.6 °F - 42.8 °F 93% 30.21 in 0.8 mi South 2.3 mph - N/A   Mist
3:29 AM 44.6 °F - 44.6 °F 100% 30.21 in 1.4 mi South 2.3 mph - N/A   Mist
3:35 AM 44.6 °F - 44.6 °F 100% 30.21 in 3.1 mi South 2.3 mph - N/A   Mist
3:41 AM 44.6 °F - 44.6 °F 100% 30.21 in 5.0 mi South 2.3 mph - N/A   Mist
3:45 AM 44.6 °F - 44.6 °F 100% 30.21 in 5.6 mi South 2.3 mph - N/A   Mist
3:49 AM 44.6 °F - 44.6 °F 100% 30.21 in 3.1 mi South 2.3 mph - N/A   Mist
3:55 AM 44.6 °F 43.1 °F 44.6 °F 100% 30.21 in 1.9 mi South 3.5 mph - N/A   Partly Cloudy
3:59 AM 44.6 °F 43.1 °F 44.6 °F 100% 30.21 in 0.9 mi South 3.5 mph - N/A   Mist
4:03 AM 42.8 °F 41.1 °F 42.8 °F 100% 30.21 in 1.1 mi South 3.5 mph - N/A   Mist
4:17 AM 44.6 °F 43.1 °F 44.6 °F 100% 30.21 in - South 3.5 mph - N/A Fog Fog
4:25 AM 44.6 °F 43.1 °F 42.8 °F 93% 30.21 in 0.6 mi SSW 3.5 mph - N/A Fog Fog
4:55 AM 42.8 °F - 42.8 °F 100% 30.21 in 1.9 mi SSW 2.3 mph - N/A   Mist
4:59 AM 42.8 °F - 42.8 °F 100% 30.21 in - South 2.3 mph - N/A   Mostly Cloudy
5:11 AM 44.6 °F 43.1 °F 44.6 °F 100% 30.21 in - South 3.5 mph - N/A   Overcast
5:16 AM 44.6 °F - 44.6 °F 100% 30.21 in 3.1 mi SSW 2.3 mph - N/A   Overcast
5:17 AM 44.6 °F - 44.6 °F 100% 30.21 in 5.0 mi SSW 2.3 mph - N/A   Overcast
5:25 AM 44.6 °F - 44.6 °F 100% 30.21 in - SSW 2.3 mph - N/A   Overcast
5:29 AM 46.4 °F - 46.4 °F 100% 30.21 in 6.2 mi SSW 2.3 mph - N/A   Overcast
5:33 AM 46.4 °F - 46.4 °F 100% 30.21 in 6.2 mi South 2.3 mph - N/A   Overcast
5:46 AM 46.4 °F - 46.4 °F 100% 30.21 in 5.6 mi South 2.3 mph - N/A   Overcast
5:55 AM 48.2 °F - 46.4 °F 93% 30.21 in 6.2 mi SSW 2.3 mph - N/A   Overcast
6:25 AM 48.2 °F - 48.2 °F 100% 30.21 in 6.2 mi South 3.5 mph - N/A   Overcast
6:55 AM 48.2 °F - 48.2 °F 100% 30.21 in 3.7 mi South 3.5 mph - N/A   Overcast
7:20 AM 48.2 °F - 48.2 °F 100% 30.21 in 5.0 mi South 3.5 mph - N/A   Overcast
7:25 AM 48.2 °F - 48.2 °F 100% 30.21 in 4.3 mi SSW 2.3 mph - N/A   Overcast
7:43 AM 48.2 °F - 46.4 °F 93% 30.21 in - South 2.3 mph - N/A   Overcast
7:47 AM 48.2 °F - 48.2 °F 100% 30.24 in 3.1 mi South 2.3 mph - N/A   Overcast
7:55 AM 48.2 °F - 48.2 °F 100% 30.24 in 3.1 mi South 2.3 mph - N/A   Mostly Cloudy
8:00 AM 47 °F - 47 °F 100% 30.25 in 3 mi South 2.2 mph - -   Mist
8:04 AM 46.4 °F - 46.4 °F 100% 30.24 in 2.2 mi South 2.3 mph - N/A   Mist
8:08 AM 46.4 °F - 46.4 °F 100% 30.24 in 0.8 mi SSW 2.3 mph - N/A   Mist
8:12 AM 46.4 °F - 46.4 °F 100% 30.24 in 1.6 mi SSW 2.3 mph - N/A   Mist
8:19 AM 46.4 °F 45.2 °F 46.4 °F 100% 30.24 in - SSW 3.5 mph - N/A   Mist
8:25 AM 46.4 °F 45.2 °F 46.4 °F 100% 30.24 in 1.9 mi South 3.5 mph - N/A   Mist
8:38 AM 46.4 °F - 46.4 °F 100% 30.24 in - SSW 2.3 mph - N/A   Partly Cloudy
8:41 AM 48.2 °F - 48.2 °F 100% 30.24 in - SSW 2.3 mph - N/A   Mist
8:47 AM 48.2 °F - 48.2 °F 100% 30.24 in - SSW 2.3 mph - N/A   Mist
8:51 AM 48.2 °F - 48.2 °F 100% 30.24 in - SSW 2.3 mph - N/A   Partly Cloudy
8:55 AM 48.2 °F - 48.2 °F 100% 30.24 in - SSW 2.3 mph - N/A   Partly Cloudy
9:00 AM 48.2 °F - 48.2 °F 100% 30.24 in 3.1 mi SSW 2.3 mph - N/A   Partly Cloudy
9:04 AM 50.0 °F - 48.2 °F 94% 30.24 in 5.0 mi SSW 2.3 mph - N/A   Scattered Clouds
9:08 AM 50.0 °F - 50.0 °F 100% 30.24 in 4.3 mi SSW 2.3 mph - N/A   Mostly Cloudy
9:12 AM 50.0 °F - 50.0 °F 100% 30.24 in 5.6 mi SSW 2.3 mph - N/A   Overcast
9:25 AM 51.8 °F - 50.0 °F 94% 30.24 in 6.2 mi South 2.3 mph - N/A   Overcast
9:29 AM 51.8 °F - 51.8 °F 100% 30.24 in 6.2 mi SSW 2.3 mph - N/A   Overcast
9:55 AM 53.6 °F - 53.6 °F 100% 30.24 in 6.2 mi WSW 2.3 mph - N/A   Overcast
10:13 AM 53.6 °F - 53.6 °F 100% 30.24 in 6.2 mi WSW 2.3 mph - N/A   Partly Cloudy
10:25 AM 55.4 °F - 53.6 °F 94% 30.24 in 6.2 mi SSW 2.3 mph - N/A   Scattered Clouds
10:55 AM 59.0 °F - 53.6 °F 82% 30.27 in 6.2 mi West 4.6 mph - N/A   Unknown
11:05 AM 59.0 °F - 53.6 °F 82% 30.27 in 6.2 mi West 4.6 mph - N/A   Scattered Clouds
11:13 AM 59.0 °F - 53.6 °F 82% 30.27 in 6.2 mi West 5.8 mph - N/A   Partly Cloudy
11:20 AM 59.0 °F - 51.8 °F 77% 30.27 in 6.2 mi West 5.8 mph - N/A   Scattered Clouds
11:25 AM 59.0 °F - 51.8 °F 77% 30.27 in 6.2 mi West 5.8 mph - N/A   Scattered Clouds
11:31 AM 59.0 °F - 51.8 °F 77% 30.24 in 6.2 mi West 6.9 mph - N/A   Scattered Clouds
11:55 AM 60.8 °F - 50.0 °F 68% 30.27 in 6.2 mi WNW 5.8 mph - N/A   Unknown
12:25 PM 59.0 °F - 50.0 °F 72% 30.27 in 6.2 mi West 6.9 mph - N/A   Partly Cloudy
12:55 PM 60.8 °F - 50.0 °F 68% 30.27 in 6.2 mi West 6.9 mph - N/A   Partly Cloudy
1:25 PM 62.6 °F - 50.0 °F 63% 30.27 in 6.2 mi West 8.1 mph - N/A   Partly Cloudy
1:55 PM 62.6 °F - 50.0 °F 63% 30.27 in 6.2 mi West 8.1 mph - N/A   Mostly Cloudy
2:00 PM 63 °F - 50 °F 52% 30.27 in 25 mi West 8.9 mph - -   Partly Cloudy
2:25 PM 62.6 °F - 50.0 °F 63% 30.27 in 6.2 mi West 9.2 mph - N/A   Overcast
2:55 PM 62.6 °F - 50.0 °F 63% 30.27 in 6.2 mi West 6.9 mph - N/A   Mostly Cloudy
3:25 PM 60.8 °F - 50.0 °F 68% 30.27 in 6.2 mi West 6.9 mph - N/A   Overcast
3:55 PM 62.6 °F - 50.0 °F 63% 30.27 in 6.2 mi West 8.1 mph - N/A   Mostly Cloudy
4:25 PM 60.8 °F - 50.0 °F 68% 30.27 in 6.2 mi West 9.2 mph - N/A   Mostly Cloudy
4:55 PM 60.8 °F - 50.0 °F 68% 30.27 in 6.2 mi West 6.9 mph - N/A   Partly Cloudy
5:25 PM 62.6 °F - 50.0 °F 63% 30.27 in 6.2 mi West 9.2 mph - N/A   Mostly Cloudy
5:55 PM 60.8 °F - 51.8 °F 72% 30.27 in 6.2 mi WSW 5.8 mph - N/A   Overcast
6:25 PM 59.0 °F - 51.8 °F 77% 30.27 in 6.2 mi West 5.8 mph - N/A   Mostly Cloudy
6:55 PM 57.2 °F - 51.8 °F 82% 30.27 in 6.2 mi WSW 4.6 mph - N/A   Mostly Cloudy
7:25 PM 53.6 °F - 50.0 °F 88% 30.27 in 6.2 mi SW 3.5 mph - N/A   Unknown
7:39 PM 53.6 °F - 50.0 °F 88% 30.27 in 6.2 mi SSW 4.6 mph - N/A   Unknown
7:55 PM 53.6 °F - 50.0 °F 88% 30.27 in 6.2 mi SW 3.5 mph - N/A   Unknown
8:00 PM 52 °F - 50 °F 90% 30.29 in 9 mi SSW 4.5 mph - -   Partly Cloudy
8:25 PM 51.8 °F - 50.0 °F 94% 30.27 in 5.6 mi South 4.6 mph - N/A   Mist
8:33 PM 51.8 °F - 50.0 °F 94% 30.27 in 4.3 mi SSW 3.5 mph - N/A   Mist
8:37 PM 51.8 °F - 50.0 °F 94% 30.27 in 5.0 mi South 3.5 mph - N/A   Mist
8:41 PM 51.8 °F - 50.0 °F 94% 30.27 in 4.3 mi South 3.5 mph - N/A   Mist
8:50 PM 50.0 °F - 48.2 °F 94% 30.27 in 5.0 mi SSW 4.6 mph - N/A   Mist
8:55 PM 50.0 °F - 48.2 °F 94% 30.27 in 4.3 mi SSW 4.6 mph - N/A   Mist
9:07 PM 51.8 °F - 50.0 °F 94% 30.27 in 5.0 mi SSW 4.6 mph - N/A   Mist
9:14 PM 50.0 °F - 50.0 °F 100% 30.30 in 4.3 mi SSW 3.5 mph - N/A   Mist
9:19 PM 51.8 °F - 50.0 °F 94% 30.30 in - SSW 3.5 mph - N/A   Mist
9:25 PM 51.8 °F - 50.0 °F 94% 30.30 in 3.7 mi SSW 4.6 mph - N/A   Partly Cloudy
9:38 PM 50.0 °F - 50.0 °F 100% 30.30 in 3.7 mi South 4.6 mph - N/A   Partly Cloudy
9:55 PM 50.0 °F - 48.2 °F 94% 30.30 in 3.7 mi South 5.8 mph - N/A   Mist
10:10 PM 50.0 °F - 48.2 °F 94% 30.30 in 5.0 mi South 5.8 mph - N/A   Mist
10:14 PM 50.0 °F - 48.2 °F 94% 30.30 in 4.3 mi South 5.8 mph - N/A   Mist
10:18 PM 50.0 °F - 48.2 °F 94% 30.30 in 5.0 mi South 5.8 mph - N/A   Mist
10:25 PM 50.0 °F - 48.2 °F 94% 30.30 in 5.0 mi South 5.8 mph - N/A   Mist
10:38 PM 50.0 °F - 48.2 °F 94% 30.30 in 5.6 mi South 5.8 mph - N/A   Mist
10:55 PM 50.0 °F - 46.4 °F 87% 30.30 in 5.6 mi South 5.8 mph - N/A   Partly Cloudy
11:25 PM 50.0 °F - 46.4 °F 87% 30.30 in 6.2 mi South 4.6 mph - N/A   Unknown
11:55 PM 50.0 °F - 46.4 °F 87% 30.30 in 5.6 mi South 5.8 mph - N/A   Mist